createdAt,value
2019-05-03T00:00:02.654Z,3.87
2019-05-03T00:03:01.717Z,4.33
2019-05-03T00:05:52.484Z,3.93
2019-05-03T00:08:21.804Z,3.67
2019-05-03T00:10:51.684Z,4.20
2019-05-03T00:13:41.492Z,4.17
2019-05-03T00:16:21.906Z,3.80
2019-05-03T00:18:52.695Z,4.07
2019-05-03T00:21:22.008Z,3.80
2019-05-03T00:23:52.302Z,3.33
2019-05-03T00:26:22.557Z,3.53
2019-05-03T00:28:52.151Z,3.37
2019-05-03T00:31:22.631Z,4.07
2019-05-03T00:33:55.167Z,3.27
2019-05-03T00:36:49.607Z,4.30
2019-05-03T00:39:36.266Z,4.10
2019-05-03T00:42:05.439Z,4.93
2019-05-03T00:44:34.522Z,5.10
2019-05-03T00:47:03.635Z,4.53
2019-05-03T00:49:32.827Z,5.07
2019-05-03T00:52:02.421Z,5.53
2019-05-03T00:54:31.806Z,4.73
2019-05-03T00:57:02.683Z,4.60
2019-05-03T00:59:32.625Z,5.67
2019-05-03T01:02:02.812Z,5.53
2019-05-03T01:04:31.964Z,5.47
2019-05-03T01:07:02.292Z,6.60
2019-05-03T01:09:31.991Z,6.77
2019-05-03T01:12:01.934Z,5.27
2019-05-03T01:14:31.820Z,6.30
2019-05-03T01:17:02.646Z,6.33
2019-05-03T01:19:32.662Z,6.10
2019-05-03T01:22:02.025Z,6.83
2019-05-03T01:24:32.287Z,5.47
2019-05-03T01:27:02.061Z,5.60
2019-05-03T01:29:32.227Z,5.20
2019-05-03T01:32:02.287Z,5.53
2019-05-03T01:34:32.587Z,5.17
2019-05-03T01:37:02.754Z,5.67
2019-05-03T01:39:32.135Z,5.00
2019-05-03T01:42:02.662Z,6.00
2019-05-03T01:44:32.653Z,6.17
2019-05-03T01:47:04.798Z,5.67
2019-05-03T01:49:47.492Z,5.83
2019-05-03T01:52:24.518Z,5.80
2019-05-03T01:54:53.641Z,6.47
2019-05-03T01:57:22.839Z,6.63
2019-05-03T01:59:52.322Z,6.47
2019-05-03T02:02:37.046Z,6.00
2019-05-03T02:05:25.695Z,5.87
2019-05-03T02:07:54.999Z,6.70
2019-05-03T02:10:24.182Z,6.77
2019-05-03T02:12:53.393Z,6.63
2019-05-03T02:15:22.616Z,5.97
2019-05-03T02:17:52.141Z,7.60
2019-05-03T02:20:21.877Z,6.63
2019-05-03T02:22:52.220Z,6.43
2019-05-03T02:25:21.831Z,6.17
2019-05-03T02:27:52.718Z,5.73
2019-05-03T02:30:24.774Z,6.17
2019-05-03T02:32:53.402Z,6.63
2019-05-03T02:35:22.912Z,5.43
2019-05-03T02:37:54.253Z,6.07
2019-05-03T02:40:24.778Z,5.93
2019-05-03T02:43:16.570Z,5.90
2019-05-03T02:46:05.868Z,5.50
2019-05-03T02:48:40.220Z,4.83
2019-05-03T02:51:09.328Z,5.03
2019-05-03T02:53:38.425Z,4.00
2019-05-03T02:56:18.205Z,4.20
2019-05-03T02:58:57.628Z,4.50
2019-05-03T03:01:26.916Z,3.77
2019-05-03T03:03:56.512Z,3.37
2019-05-03T03:06:26.830Z,3.07
2019-05-03T03:08:56.467Z,3.20
2019-05-03T03:11:26.102Z,2.80
2019-05-03T03:13:55.383Z,2.53
2019-05-03T03:16:25.107Z,3.00
2019-05-03T03:18:55.894Z,2.50
2019-05-03T03:21:26.942Z,2.03
2019-05-03T03:24:07.600Z,2.10
2019-05-03T03:26:42.452Z,2.37
2019-05-03T03:29:09.291Z,2.10
2019-05-03T03:32:18.301Z,1.90
2019-05-03T03:35:04.196Z,2.20
2019-05-03T03:37:32.197Z,1.90
2019-05-03T03:40:01.395Z,1.70
2019-05-03T03:42:30.886Z,1.40
2019-05-03T03:44:59.984Z,1.67
2019-05-03T03:47:29.142Z,1.60
2019-05-03T03:49:58.263Z,1.57
2019-05-03T03:52:27.522Z,1.70
2019-05-03T03:54:56.726Z,1.80
2019-05-03T03:57:25.915Z,1.40
2019-05-03T03:59:56.254Z,1.80
2019-05-03T04:02:26.515Z,1.40
2019-05-03T04:04:56.393Z,1.47
2019-05-03T04:07:26.324Z,1.57
2019-05-03T04:09:56.199Z,2.00
2019-05-03T04:12:26.476Z,1.53
2019-05-03T04:15:02.332Z,1.73
2019-05-03T04:17:57.082Z,1.43
2019-05-03T04:20:29.080Z,1.50
2019-05-03T04:22:58.221Z,1.67
2019-05-03T04:25:27.444Z,1.40
2019-05-03T04:27:56.543Z,1.57
2019-05-03T04:30:26.054Z,1.50
2019-05-03T04:32:56.602Z,1.77
2019-05-03T04:35:26.493Z,1.30
2019-05-03T04:37:56.488Z,1.40
2019-05-03T04:40:26.130Z,1.50
2019-05-03T04:42:55.999Z,1.80
2019-05-03T04:45:25.750Z,1.80
2019-05-03T04:47:57.047Z,1.83
2019-05-03T04:50:26.330Z,1.73
2019-05-03T04:52:56.747Z,1.87
2019-05-03T04:55:26.861Z,1.70
2019-05-03T04:57:56.455Z,1.43
2019-05-03T05:00:26.010Z,2.23
2019-05-03T05:02:55.500Z,2.00
2019-05-03T05:05:26.112Z,1.60
2019-05-03T05:07:56.013Z,2.33
2019-05-03T05:10:26.284Z,2.57
2019-05-03T05:12:55.639Z,2.20
2019-05-03T05:15:26.470Z,1.90
2019-05-03T05:18:06.939Z,1.87
2019-05-03T05:20:46.403Z,2.20
2019-05-03T05:23:15.611Z,2.40
2019-05-03T05:25:50.682Z,2.80
2019-05-03T05:28:26.370Z,2.07
2019-05-03T05:30:55.529Z,2.73
2019-05-03T05:33:25.220Z,3.20
2019-05-03T05:35:54.832Z,2.97
2019-05-03T05:38:25.540Z,3.33
2019-05-03T05:40:55.521Z,3.00
2019-05-03T05:43:25.551Z,3.50
2019-05-03T05:45:56.289Z,3.93
2019-05-03T05:48:45.211Z,3.67
2019-05-03T05:51:16.174Z,3.47
2019-05-03T05:53:45.158Z,3.73
2019-05-03T05:56:32.114Z,3.37
2019-05-03T05:59:14.825Z,4.20
2019-05-03T06:01:50.144Z,3.90
2019-05-03T06:04:19.316Z,3.70
2019-05-03T06:07:06.004Z,4.03
2019-05-03T06:09:41.762Z,4.27
2019-05-03T06:12:26.336Z,3.50
2019-05-03T06:14:59.296Z,3.83
2019-05-03T06:17:40.142Z,4.40
2019-05-03T06:20:28.102Z,4.23
2019-05-03T06:23:22.083Z,4.30
2019-05-03T06:25:51.240Z,3.63
2019-05-03T06:28:31.333Z,4.57
2019-05-03T06:31:10.111Z,4.47
2019-05-03T06:33:39.193Z,4.40
2019-05-03T06:36:08.973Z,4.40
2019-05-03T06:38:38.129Z,4.53
2019-05-03T06:41:07.132Z,3.80
2019-05-03T06:43:39.515Z,4.07
2019-05-03T06:46:07.182Z,4.13
2019-05-03T06:48:36.184Z,4.47
2019-05-03T06:51:10.462Z,4.10
2019-05-03T06:53:36.176Z,4.90
2019-05-03T06:56:05.263Z,5.00
2019-05-03T06:58:36.503Z,3.13
2019-05-03T07:01:30.185Z,4.33
2019-05-03T07:04:05.158Z,4.37
2019-05-03T07:06:40.828Z,4.30
2019-05-03T07:09:29.099Z,3.77
2019-05-03T07:11:58.294Z,3.50
2019-05-03T07:14:27.420Z,4.10
2019-05-03T07:16:56.886Z,4.03
2019-05-03T07:19:26.057Z,3.93
2019-05-03T07:21:55.231Z,4.40
2019-05-03T07:24:24.864Z,4.03
2019-05-03T07:26:55.104Z,3.33
2019-05-03T07:29:25.502Z,3.83
2019-05-03T07:31:54.976Z,4.10
2019-05-03T07:34:24.767Z,4.30
2019-05-03T07:36:55.507Z,3.97
2019-05-03T07:39:24.793Z,3.93
2019-05-03T07:41:55.070Z,4.00
2019-05-03T07:44:25.463Z,3.43
2019-05-03T07:46:55.467Z,4.03
2019-05-03T07:49:25.043Z,3.07
2019-05-03T07:51:55.318Z,3.80
2019-05-03T07:54:24.899Z,3.53
2019-05-03T07:57:02.220Z,3.53
2019-05-03T07:59:31.382Z,3.60
2019-05-03T08:02:00.562Z,3.90
2019-05-03T08:04:29.738Z,3.50
2019-05-03T08:06:58.799Z,3.13
2019-05-03T08:09:27.988Z,3.80
2019-05-03T08:11:57.441Z,3.13
2019-05-03T08:14:26.614Z,3.43
2019-05-03T08:16:55.795Z,3.70
2019-05-03T08:19:27.024Z,3.70
2019-05-03T08:21:56.801Z,3.33
2019-05-03T08:24:26.037Z,3.37
2019-05-03T08:26:55.871Z,3.07
2019-05-03T08:29:25.256Z,3.73
2019-05-03T08:32:12.040Z,3.20
2019-05-03T08:34:49.103Z,3.10
2019-05-03T08:37:36.021Z,3.87
2019-05-03T08:40:05.426Z,3.57
2019-05-03T08:42:35.178Z,2.70
2019-05-03T08:45:07.908Z,3.07
2019-05-03T08:47:35.867Z,3.37
2019-05-03T08:50:05.608Z,3.37
2019-05-03T08:52:35.020Z,3.20
2019-05-03T08:55:05.222Z,3.27
2019-05-03T08:57:35.430Z,2.93
2019-05-03T09:00:07.854Z,3.10
2019-05-03T09:02:37.007Z,3.60
2019-05-03T09:05:06.233Z,2.97
2019-05-03T09:07:35.585Z,3.87
2019-05-03T09:10:16.880Z,3.37
2019-05-03T09:13:05.538Z,3.23
2019-05-03T09:15:34.981Z,2.93
2019-05-03T09:18:04.790Z,3.33
2019-05-03T09:20:35.625Z,2.67
2019-05-03T09:23:05.448Z,2.37
2019-05-03T09:25:35.730Z,2.63
2019-05-03T09:28:05.271Z,2.80
2019-05-03T09:30:35.763Z,2.90
2019-05-03T09:33:08.620Z,2.43
2019-05-03T09:35:36.205Z,3.37
2019-05-03T09:38:05.870Z,3.40
2019-05-03T09:40:35.462Z,2.60
2019-05-03T09:43:04.818Z,2.40
2019-05-03T09:45:35.281Z,3.03
2019-05-03T09:48:05.790Z,2.47
2019-05-03T09:50:35.837Z,3.07
2019-05-03T09:53:05.586Z,2.37
2019-05-03T09:55:38.597Z,2.73
2019-05-03T09:58:08.035Z,3.00
2019-05-03T10:00:37.212Z,2.50
2019-05-03T10:03:06.386Z,2.00
2019-05-03T10:05:35.560Z,2.53
2019-05-03T10:08:05.307Z,2.10
2019-05-03T10:10:52.095Z,3.50
2019-05-03T10:13:23.336Z,2.37
2019-05-03T10:15:52.051Z,2.50
2019-05-03T10:18:21.824Z,1.90
2019-05-03T10:20:50.970Z,2.50
2019-05-03T10:23:48.032Z,2.87
2019-05-03T10:26:17.253Z,2.23
2019-05-03T10:28:46.433Z,2.23
2019-05-03T10:31:15.611Z,2.20
2019-05-03T10:34:05.781Z,2.70
2019-05-03T10:36:35.646Z,2.07
2019-05-03T10:39:06.441Z,2.23
2019-05-03T10:41:35.641Z,2.43
2019-05-03T10:44:06.029Z,2.20
2019-05-03T10:46:35.830Z,2.50
2019-05-03T10:49:05.730Z,2.67
2019-05-03T10:51:39.182Z,2.50
2019-05-03T10:54:08.339Z,2.23
2019-05-03T10:56:51.916Z,2.03
2019-05-03T10:59:22.285Z,2.40
2019-05-03T11:02:07.165Z,2.20
2019-05-03T11:04:36.322Z,2.07
2019-05-03T11:07:05.642Z,2.40
2019-05-03T11:09:47.955Z,1.90
2019-05-03T11:12:06.332Z,2.33
2019-05-03T11:14:35.537Z,2.37
2019-05-03T11:17:05.649Z,2.10
2019-05-03T11:19:35.046Z,2.33
2019-05-03T11:22:05.451Z,2.33
2019-05-03T11:24:35.121Z,2.87
2019-05-03T11:27:08.526Z,2.40
2019-05-03T11:29:37.590Z,2.53
2019-05-03T11:32:28.908Z,2.07
2019-05-03T11:35:12.712Z,2.43
2019-05-03T11:37:51.936Z,2.40
2019-05-03T11:40:21.027Z,2.50
2019-05-03T11:42:51.366Z,1.93
2019-05-03T11:45:20.449Z,2.23
2019-05-03T11:47:49.541Z,2.70
2019-05-03T11:50:18.616Z,2.33
2019-05-03T11:52:47.694Z,1.80
2019-05-03T11:55:16.895Z,2.93
2019-05-03T11:57:45.945Z,2.60
2019-05-03T12:00:18.155Z,2.50
2019-05-03T12:03:05.664Z,1.87
2019-05-03T12:05:34.952Z,2.37
2019-05-03T12:08:05.432Z,1.70
2019-05-03T12:10:50.296Z,1.90
2019-05-03T12:13:10.771Z,2.00
2019-05-03T12:15:39.957Z,2.10
2019-05-03T12:18:10.535Z,1.90
2019-05-03T12:20:40.976Z,1.80
2019-05-03T12:23:11.435Z,1.90
2019-05-03T12:25:41.782Z,1.77
2019-05-03T12:28:11.345Z,2.00
2019-05-03T12:30:40.463Z,2.27
2019-05-03T12:33:09.705Z,1.87
2019-05-03T12:35:38.889Z,1.87
2019-05-03T12:38:07.987Z,2.03
2019-05-03T12:40:37.152Z,1.83
2019-05-03T12:43:06.422Z,2.13
2019-05-03T12:45:35.704Z,2.27
2019-05-03T12:48:05.224Z,2.20
2019-05-03T12:50:34.882Z,1.90
2019-05-03T12:53:04.877Z,2.17
2019-05-03T12:55:35.568Z,2.30
2019-05-03T12:58:06.250Z,2.00
2019-05-03T13:01:04.551Z,2.23
2019-05-03T13:03:44.629Z,1.90
2019-05-03T13:06:14.941Z,1.70
2019-05-03T13:08:45.735Z,1.87
2019-05-03T13:11:14.857Z,1.50
2019-05-03T13:13:45.250Z,1.67
2019-05-03T13:16:17.875Z,1.70
2019-05-03T13:18:46.982Z,1.87
2019-05-03T13:21:16.086Z,2.00
2019-05-03T13:23:45.526Z,2.33
2019-05-03T13:26:14.978Z,1.50
2019-05-03T13:28:45.672Z,1.63
2019-05-03T13:31:16.196Z,1.80
2019-05-03T13:33:45.703Z,1.97
2019-05-03T13:36:15.242Z,2.23
2019-05-03T13:38:45.283Z,1.70
2019-05-03T13:41:14.461Z,1.53
2019-05-03T13:43:45.394Z,2.10
2019-05-03T13:46:15.698Z,2.30
2019-05-03T13:48:48.893Z,2.03
2019-05-03T13:51:16.097Z,2.00
2019-05-03T13:53:45.602Z,2.03
2019-05-03T13:56:15.310Z,1.83
2019-05-03T13:58:44.685Z,1.50
2019-05-03T14:01:14.685Z,1.73
2019-05-03T14:03:45.239Z,1.70
2019-05-03T14:06:14.688Z,1.30
2019-05-03T14:08:45.438Z,1.60
2019-05-03T14:11:15.531Z,1.83
2019-05-03T14:13:44.940Z,1.40
2019-05-03T14:16:14.427Z,1.50
2019-05-03T14:18:45.709Z,2.20
2019-05-03T14:21:20.294Z,1.63
2019-05-03T14:24:07.301Z,2.00
2019-05-03T14:26:36.406Z,1.77
2019-05-03T14:29:05.792Z,1.77
2019-05-03T14:31:35.270Z,1.77
2019-05-03T14:34:06.027Z,1.87
2019-05-03T14:36:36.003Z,1.60
2019-05-03T14:39:09.824Z,1.47
2019-05-03T14:41:38.685Z,1.53
2019-05-03T14:44:07.851Z,1.17
2019-05-03T14:46:36.992Z,1.97
2019-05-03T14:49:06.151Z,1.63
2019-05-03T14:51:35.298Z,1.57
2019-05-03T14:54:05.539Z,1.30
2019-05-03T14:56:45.561Z,2.17
2019-05-03T14:59:46.040Z,1.77
2019-05-03T15:02:51.086Z,1.43
2019-05-03T15:05:20.022Z,1.53
2019-05-03T15:07:49.098Z,1.87
2019-05-03T15:10:18.253Z,1.53
2019-05-03T15:12:48.148Z,1.57
2019-05-03T15:15:17.292Z,1.87
2019-05-03T15:17:46.485Z,1.37
2019-05-03T15:20:15.647Z,1.57
2019-05-03T15:22:45.474Z,1.30
2019-05-03T15:25:14.613Z,1.90
2019-05-03T15:27:44.806Z,2.23
2019-05-03T15:30:15.609Z,2.97
2019-05-03T15:32:57.043Z,2.33
2019-05-03T15:35:15.551Z,2.40
2019-05-03T15:37:45.371Z,1.87
2019-05-03T15:40:15.596Z,2.40
2019-05-03T15:42:50.561Z,1.43
2019-05-03T15:45:41.408Z,2.00
2019-05-03T15:48:25.520Z,1.50
2019-05-03T15:50:55.444Z,1.70
2019-05-03T15:53:24.974Z,1.53
2019-05-03T15:55:55.165Z,1.70
2019-05-03T15:58:24.840Z,2.13
2019-05-03T16:00:55.423Z,2.10
2019-05-03T16:03:25.375Z,1.77
2019-05-03T16:05:55.677Z,1.80
2019-05-03T16:08:25.157Z,2.20
2019-05-03T16:10:54.928Z,1.07
2019-05-03T16:13:25.208Z,1.20
2019-05-03T16:15:55.385Z,1.67
2019-05-03T16:18:26.257Z,1.80
2019-05-03T16:20:55.426Z,1.83
2019-05-03T16:23:24.987Z,1.53
2019-05-03T16:25:54.633Z,1.27
2019-05-03T16:28:33.641Z,1.50
2019-05-03T16:31:07.000Z,1.70
2019-05-03T16:33:36.186Z,2.17
2019-05-03T16:36:05.561Z,1.33
2019-05-03T16:38:35.480Z,1.30
2019-05-03T16:41:05.143Z,1.50
2019-05-03T16:43:34.819Z,1.80
2019-05-03T16:46:05.636Z,1.60
2019-05-03T16:48:35.398Z,1.57
2019-05-03T16:51:04.661Z,1.60
2019-05-03T16:53:34.998Z,1.23
2019-05-03T16:56:05.553Z,1.27
2019-05-03T16:58:35.374Z,1.40
2019-05-03T17:01:04.686Z,1.50
2019-05-03T17:03:58.782Z,1.30
2019-05-03T17:06:45.207Z,1.80
2019-05-03T17:09:32.077Z,1.53
2019-05-03T17:12:18.966Z,1.90
2019-05-03T17:14:48.143Z,1.70
2019-05-03T17:17:17.121Z,1.73
2019-05-03T17:19:46.559Z,1.67
2019-05-03T17:22:17.453Z,1.50
2019-05-03T17:24:46.486Z,1.40
2019-05-03T17:27:15.578Z,1.70
2019-05-03T17:29:44.751Z,1.70
2019-05-03T17:32:15.322Z,1.70
2019-05-03T17:34:45.362Z,1.50
2019-05-03T17:37:14.735Z,1.37
2019-05-03T17:40:14.924Z,1.67
2019-05-03T17:43:01.940Z,1.70
2019-05-03T17:45:37.709Z,1.50
2019-05-03T17:48:05.855Z,1.70
2019-05-03T17:50:35.415Z,1.90
2019-05-03T17:53:25.309Z,1.47
2019-05-03T17:56:01.609Z,1.13
2019-05-03T17:58:49.691Z,1.60
2019-05-03T18:01:29.579Z,1.20
2019-05-03T18:04:06.684Z,1.70
2019-05-03T18:06:37.656Z,1.60
2019-05-03T18:09:25.217Z,1.40
2019-05-03T18:11:56.375Z,1.10
2019-05-03T18:14:25.528Z,1.57
2019-05-03T18:16:54.896Z,1.50
2019-05-03T18:19:24.451Z,1.40
2019-05-03T18:21:55.333Z,1.60
2019-05-03T18:24:24.805Z,1.50
2019-05-03T18:26:54.136Z,1.70
2019-05-03T18:29:25.136Z,1.63
2019-05-03T18:31:55.045Z,1.20
2019-05-03T18:34:25.020Z,1.30
2019-05-03T18:36:54.552Z,1.33
2019-05-03T18:39:25.267Z,1.77
2019-05-03T18:41:56.267Z,2.10
2019-05-03T18:44:44.876Z,2.10
2019-05-03T18:47:22.601Z,2.03
2019-05-03T18:49:54.839Z,2.80
2019-05-03T18:52:23.831Z,2.37
2019-05-03T18:54:55.041Z,2.97
2019-05-03T18:57:25.602Z,2.93
2019-05-03T18:59:55.711Z,4.83
2019-05-03T19:02:25.717Z,7.30
2019-05-03T19:04:57.957Z,8.87
2019-05-03T19:07:40.433Z,9.10
2019-05-03T19:10:27.412Z,11.90
2019-05-03T19:13:04.956Z,14.07
2019-05-03T19:15:34.786Z,13.53
2019-05-03T19:18:16.130Z,14.67
2019-05-03T19:20:45.587Z,14.90
2019-05-03T19:23:16.804Z,15.70
2019-05-03T19:25:49.354Z,15.77
2019-05-03T19:28:17.771Z,17.10
2019-05-03T19:30:47.525Z,18.57
2019-05-03T19:33:18.784Z,17.40
2019-05-03T19:35:48.060Z,18.97
2019-05-03T19:38:17.353Z,18.63
2019-05-03T19:40:46.574Z,16.90
2019-05-03T19:43:15.769Z,17.73
2019-05-03T19:45:45.004Z,17.03
2019-05-03T19:48:14.715Z,17.47
2019-05-03T19:50:45.128Z,17.97
2019-05-03T19:53:33.300Z,18.63
2019-05-03T19:56:22.387Z,18.37
2019-05-03T19:58:55.281Z,16.57
2019-05-03T20:01:43.425Z,17.57
2019-05-03T20:04:40.836Z,15.97
2019-05-03T20:07:28.455Z,16.73
2019-05-03T20:09:57.773Z,16.80
2019-05-03T20:12:27.212Z,15.30
2019-05-03T20:14:56.499Z,16.10
2019-05-03T20:17:25.730Z,15.97
2019-05-03T20:19:55.022Z,11.70
2019-05-03T20:22:24.569Z,9.80
2019-05-03T20:24:55.915Z,9.27
2019-05-03T20:27:25.407Z,9.17
2019-05-03T20:29:55.463Z,9.10
2019-05-03T20:32:25.201Z,8.40
2019-05-03T20:34:55.112Z,6.90
2019-05-03T20:37:25.160Z,8.07
2019-05-03T20:39:54.598Z,8.53
2019-05-03T20:42:41.657Z,8.17
2019-05-03T20:45:15.002Z,7.77
2019-05-03T20:47:49.583Z,7.03
2019-05-03T20:50:18.754Z,4.30
2019-05-03T20:52:47.937Z,6.93
2019-05-03T20:55:17.360Z,5.87
2019-05-03T20:57:46.596Z,6.17
2019-05-03T21:00:18.488Z,5.90
2019-05-03T21:02:53.271Z,5.70
2019-05-03T21:05:27.873Z,5.60
2019-05-03T21:07:49.728Z,6.30
2019-05-03T21:10:18.853Z,5.73
2019-05-03T21:12:50.147Z,6.07
2019-05-03T21:15:27.881Z,7.03
2019-05-03T21:18:15.224Z,6.27
2019-05-03T21:20:58.469Z,6.03
2019-05-03T21:23:29.468Z,5.53
2019-05-03T21:26:25.307Z,5.83
2019-05-03T21:28:55.330Z,5.90
2019-05-03T21:31:24.833Z,5.93
2019-05-03T21:33:55.230Z,5.80
2019-05-03T21:36:25.516Z,4.90
2019-05-03T21:38:54.925Z,4.90
2019-05-03T21:41:24.722Z,5.23
2019-05-03T21:43:54.511Z,6.40
2019-05-03T21:46:55.985Z,5.03
2019-05-03T21:49:37.244Z,4.97
2019-05-03T21:52:06.501Z,5.00
2019-05-03T21:54:35.597Z,5.40
2019-05-03T21:57:05.454Z,4.90
2019-05-03T21:59:35.451Z,5.57
2019-05-03T22:02:05.188Z,4.67
2019-05-03T22:04:35.131Z,4.37
2019-05-03T22:07:05.216Z,4.90
2019-05-03T22:09:36.504Z,4.20
2019-05-03T22:12:05.684Z,4.67
2019-05-03T22:14:54.510Z,4.73
2019-05-03T22:18:10.733Z,4.23
2019-05-03T22:20:58.466Z,4.87
2019-05-03T22:24:01.903Z,4.00
2019-05-03T22:26:57.784Z,4.23
2019-05-03T22:29:26.957Z,4.27
2019-05-03T22:31:56.697Z,4.70
2019-05-03T22:34:25.980Z,3.50
2019-05-03T22:36:55.196Z,4.30
2019-05-03T22:39:24.994Z,4.03
2019-05-03T22:41:54.643Z,3.80
2019-05-03T22:44:25.292Z,4.60
2019-05-03T22:46:55.172Z,3.40
2019-05-03T22:49:26.060Z,4.30
2019-05-03T22:51:55.461Z,4.43
2019-05-03T22:54:24.762Z,3.80
2019-05-03T22:56:55.480Z,4.30
2019-05-03T22:59:25.366Z,4.30
2019-05-03T23:01:54.849Z,4.23
2019-05-03T23:04:25.341Z,4.00
2019-05-03T23:06:55.753Z,5.03
2019-05-03T23:09:25.210Z,3.97
2019-05-03T23:11:55.262Z,4.17
2019-05-03T23:14:25.465Z,4.43
2019-05-03T23:16:54.921Z,4.33
2019-05-03T23:19:24.090Z,3.90
2019-05-03T23:22:11.983Z,4.00
2019-05-03T23:24:41.180Z,4.37
2019-05-03T23:27:10.257Z,3.77
2019-05-03T23:29:39.433Z,4.07
2019-05-03T23:32:08.572Z,3.37
2019-05-03T23:34:37.854Z,3.67
2019-05-03T23:37:07.023Z,3.47
2019-05-03T23:39:36.265Z,3.83
2019-05-03T23:42:05.968Z,3.23
2019-05-03T23:44:35.402Z,3.23
2019-05-03T23:47:29.724Z,3.23
2019-05-03T23:49:59.528Z,4.00
2019-05-03T23:52:35.813Z,3.33
2019-05-03T23:55:10.669Z,4.00
2019-05-03T23:57:39.799Z,2.73
